Lodge, Illinois
Current Conditions -  °F | °C
As of 2:02 PM on Monday 26 Jan 2015 (Local Time) from KCMI Reporting Station
Light Snow Light Snow  
Wind Chill: 19°   Ceiling: 200
Heat Index: 27°   Visibility: 1mi
Dew Point: 23°   Wind: 7mph
Humidity: 85%   Direction: 170°S
Pressure: 29.88"   Gusts: NA
Location:  40.0093°N, 88.5358°W
Report Text: KCMI 262002Z 17006KT 1SM R32R/P6000FT -SN BR VV002 M03/M05 A2988 RMK AO2 SFC VIS 1 1/4 P0000 T10281050
Loading
Personal Weather Stations






























Interactive Weather Map New forecast layout! Learn more

10-Day Weather Forecast

Advertisements
Track Severe Weather on mobile